KSNK/SNK METAR and TAF weather

Enter ICAO airport designator
Station Type Date Time Source
KSNK METAR 2021/03/04 22:15 UTC NOAA

KSNK 042215Z AUTO 25023G30KT 7SM CLR 30/M02 A2982 RMK AO2 T02951019


Station Type Date Time Source
KSNK Decoded METAR 2021/03/04 22:15 UTC NOAA

Snyder, Winston Field Airport, TX, United States (KSNK) 32-41-36N 100-57-01W
Mar 04, 2021 - 05:15 PM EST / 2021.03.04 2215 UTC
Wind: from the WSW (250 degrees) at 26 MPH (23 KT) gusting to 35 MPH (30 KT):0
Visibility: 7 mile(s):0
Sky conditions: clear
Temperature: 85.1 F (29.5 C)
Dew Point: 28.6 F (-1.9 C)
Relative Humidity: 12%
Pressure (altimeter): 29.82 in. Hg (1009 hPa)
ob: KSNK 042215Z AUTO 25023G30KT 7SM CLR 30/M02 A2982 RMK AO2 T02951019
cycle: 22

Station Type Date Time Source
KSNK TAF UTC NOAA

Error!

Example: see airport list